sensor_id;sensor_type;location;lat;lon;timestamp;P1;durP1;ratioP1;P2;durP2;ratioP2
24637;SDS011;12773;50.162;8.548;2023-04-01T00:02:39;7.25;;;1.30;;
24637;SDS011;12773;50.162;8.548;2023-04-01T00:05:28;3.85;;;1.30;;
24637;SDS011;12773;50.162;8.548;2023-04-01T00:08:15;6.35;;;1.50;;
24637;SDS011;12773;50.162;8.548;2023-04-01T00:11:04;5.22;;;1.10;;
24637;SDS011;12773;50.162;8.548;2023-04-01T00:13:51;7.20;;;1.15;;
24637;SDS011;12773;50.162;8.548;2023-04-01T00:16:39;6.12;;;1.37;;
24637;SDS011;12773;50.162;8.548;2023-04-01T00:19:27;4.62;;;1.07;;
24637;SDS011;12773;50.162;8.548;2023-04-01T00:22:14;7.62;;;1.42;;
24637;SDS011;12773;50.162;8.548;2023-04-01T00:25:03;3.75;;;1.30;;
24637;SDS011;12773;50.162;8.548;2023-04-01T00:27:51;3.92;;;1.25;;
24637;SDS011;12773;50.162;8.548;2023-04-01T00:30:38;8.73;;;1.98;;
24637;SDS011;12773;50.162;8.548;2023-04-01T00:33:25;4.92;;;1.32;;
24637;SDS011;12773;50.162;8.548;2023-04-01T00:36:14;7.15;;;1.40;;
24637;SDS011;12773;50.162;8.548;2023-04-01T00:39:04;7.20;;;1.20;;
24637;SDS011;12773;50.162;8.548;2023-04-01T00:41:51;6.33;;;1.20;;
24637;SDS011;12773;50.162;8.548;2023-04-01T00:44:38;7.70;;;1.57;;
24637;SDS011;12773;50.162;8.548;2023-04-01T00:47:26;8.73;;;1.42;;
24637;SDS011;12773;50.162;8.548;2023-04-01T00:50:14;5.97;;;1.32;;
24637;SDS011;12773;50.162;8.548;2023-04-01T00:53:01;9.45;;;1.72;;
24637;SDS011;12773;50.162;8.548;2023-04-01T00:56:07;11.00;;;1.42;;
24637;SDS011;12773;50.162;8.548;2023-04-01T00:59:08;6.28;;;1.40;;
24637;SDS011;12773;50.162;8.548;2023-04-01T01:01:53;8.98;;;1.27;;
24637;SDS011;12773;50.162;8.548;2023-04-01T01:04:41;4.70;;;1.10;;
24637;SDS011;12773;50.162;8.548;2023-04-01T01:10:37;6.37;;;1.17;;
24637;SDS011;12773;50.162;8.548;2023-04-01T01:16:24;6.12;;;0.93;;
24637;SDS011;12773;50.162;8.548;2023-04-01T01:19:29;3.52;;;0.98;;
24637;SDS011;12773;50.162;8.548;2023-04-01T01:22:27;7.37;;;1.20;;
24637;SDS011;12773;50.162;8.548;2023-04-01T01:28:14;7.58;;;1.10;;
24637;SDS011;12773;50.162;8.548;2023-04-01T01:31:02;4.87;;;1.07;;
24637;SDS011;12773;50.162;8.548;2023-04-01T01:39:47;3.67;;;1.00;;
24637;SDS011;12773;50.162;8.548;2023-04-01T01:42:37;6.62;;;1.22;;
24637;SDS011;12773;50.162;8.548;2023-04-01T01:45:26;6.87;;;1.30;;
24637;SDS011;12773;50.162;8.548;2023-04-01T01:48:15;5.03;;;1.30;;
24637;SDS011;12773;50.162;8.548;2023-04-01T01:51:09;4.10;;;1.20;;
24637;SDS011;12773;50.162;8.548;2023-04-01T01:53:53;3.58;;;1.15;;
24637;SDS011;12773;50.162;8.548;2023-04-01T01:56:41;4.67;;;1.00;;
24637;SDS011;12773;50.162;8.548;2023-04-01T01:59:30;3.85;;;1.05;;
24637;SDS011;12773;50.162;8.548;2023-04-01T02:02:19;7.08;;;1.00;;
24637;SDS011;12773;50.162;8.548;2023-04-01T02:05:09;4.28;;;1.05;;
24637;SDS011;12773;50.162;8.548;2023-04-01T02:08:06;3.55;;;1.00;;
24637;SDS011;12773;50.162;8.548;2023-04-01T02:10:59;3.30;;;1.20;;
24637;SDS011;12773;50.162;8.548;2023-04-01T02:13:52;3.87;;;1.10;;
24637;SDS011;12773;50.162;8.548;2023-04-01T02:17:00;3.58;;;0.90;;
24637;SDS011;12773;50.162;8.548;2023-04-01T02:19:48;7.20;;;1.12;;
24637;SDS011;12773;50.162;8.548;2023-04-01T02:22:40;7.20;;;1.42;;
24637;SDS011;12773;50.162;8.548;2023-04-01T02:25:33;6.50;;;1.00;;
24637;SDS011;12773;50.162;8.548;2023-04-01T02:28:19;7.20;;;1.22;;
24637;SDS011;12773;50.162;8.548;2023-04-01T02:31:09;6.90;;;1.22;;
24637;SDS011;12773;50.162;8.548;2023-04-01T02:33:57;3.15;;;0.90;;
24637;SDS011;12773;50.162;8.548;2023-04-01T02:36:45;4.58;;;1.45;;
24637;SDS011;12773;50.162;8.548;2023-04-01T02:39:34;6.97;;;1.42;;
24637;SDS011;12773;50.162;8.548;2023-04-01T02:42:24;2.77;;;0.98;;
24637;SDS011;12773;50.162;8.548;2023-04-01T02:45:12;4.80;;;0.80;;
24637;SDS011;12773;50.162;8.548;2023-04-01T02:48:00;3.77;;;1.07;;
24637;SDS011;12773;50.162;8.548;2023-04-01T02:50:48;5.60;;;1.12;;
24637;SDS011;12773;50.162;8.548;2023-04-01T02:53:36;4.10;;;0.80;;
24637;SDS011;12773;50.162;8.548;2023-04-01T02:56:23;4.17;;;1.00;;
24637;SDS011;12773;50.162;8.548;2023-04-01T02:59:12;5.67;;;0.90;;
24637;SDS011;12773;50.162;8.548;2023-04-01T03:01:59;3.15;;;0.80;;
24637;SDS011;12773;50.162;8.548;2023-04-01T03:04:47;6.95;;;0.90;;
24637;SDS011;12773;50.162;8.548;2023-04-01T03:07:35;3.98;;;1.00;;
24637;SDS011;12773;50.162;8.548;2023-04-01T03:10:25;6.30;;;0.95;;
24637;SDS011;12773;50.162;8.548;2023-04-01T03:13:14;5.58;;;0.82;;
24637;SDS011;12773;50.162;8.548;2023-04-01T03:16:01;5.45;;;1.05;;
24637;SDS011;12773;50.162;8.548;2023-04-01T03:18:49;5.60;;;0.95;;
24637;SDS011;12773;50.162;8.548;2023-04-01T03:21:38;4.40;;;0.80;;
24637;SDS011;12773;50.162;8.548;2023-04-01T03:24:25;4.60;;;1.00;;
24637;SDS011;12773;50.162;8.548;2023-04-01T03:27:12;5.83;;;1.00;;
24637;SDS011;12773;50.162;8.548;2023-04-01T03:30:01;3.12;;;0.70;;
24637;SDS011;12773;50.162;8.548;2023-04-01T03:32:53;4.05;;;1.00;;
24637;SDS011;12773;50.162;8.548;2023-04-01T03:35:41;6.87;;;1.10;;
24637;SDS011;12773;50.162;8.548;2023-04-01T03:38:28;4.67;;;1.20;;
24637;SDS011;12773;50.162;8.548;2023-04-01T03:41:16;5.37;;;1.15;;
24637;SDS011;12773;50.162;8.548;2023-04-01T03:44:05;5.58;;;0.90;;
24637;SDS011;12773;50.162;8.548;2023-04-01T03:46:52;4.83;;;0.95;;
24637;SDS011;12773;50.162;8.548;2023-04-01T03:49:40;11.15;;;1.25;;
24637;SDS011;12773;50.162;8.548;2023-04-01T03:52:27;6.67;;;1.80;;
24637;SDS011;12773;50.162;8.548;2023-04-01T03:55:15;5.50;;;0.93;;
24637;SDS011;12773;50.162;8.548;2023-04-01T03:58:04;3.90;;;0.90;;
24637;SDS011;12773;50.162;8.548;2023-04-01T04:00:52;8.73;;;1.22;;
24637;SDS011;12773;50.162;8.548;2023-04-01T04:03:40;4.75;;;1.15;;
24637;SDS011;12773;50.162;8.548;2023-04-01T04:06:27;5.58;;;1.12;;
24637;SDS011;12773;50.162;8.548;2023-04-01T04:09:15;4.40;;;1.40;;
24637;SDS011;12773;50.162;8.548;2023-04-01T04:12:03;6.67;;;1.37;;
24637;SDS011;12773;50.162;8.548;2023-04-01T04:14:51;5.92;;;1.20;;
24637;SDS011;12773;50.162;8.548;2023-04-01T04:17:38;7.00;;;1.32;;
24637;SDS011;12773;50.162;8.548;2023-04-01T04:20:26;7.10;;;0.95;;
24637;SDS011;12773;50.162;8.548;2023-04-01T04:23:13;7.75;;;1.32;;
24637;SDS011;12773;50.162;8.548;2023-04-01T04:26:02;8.48;;;1.37;;
24637;SDS011;12773;50.162;8.548;2023-04-01T04:28:51;6.33;;;1.45;;
24637;SDS011;12773;50.162;8.548;2023-04-01T04:31:40;6.22;;;1.05;;
24637;SDS011;12773;50.162;8.548;2023-04-01T04:34:28;5.12;;;1.12;;
24637;SDS011;12773;50.162;8.548;2023-04-01T04:37:16;4.35;;;1.00;;
24637;SDS011;12773;50.162;8.548;2023-04-01T04:40:03;3.98;;;0.80;;
24637;SDS011;12773;50.162;8.548;2023-04-01T04:42:51;4.15;;;1.10;;
24637;SDS011;12773;50.162;8.548;2023-04-01T04:45:39;6.65;;;0.95;;
24637;SDS011;12773;50.162;8.548;2023-04-01T04:48:26;4.45;;;0.70;;
24637;SDS011;12773;50.162;8.548;2023-04-01T04:51:15;6.12;;;1.10;;
24637;SDS011;12773;50.162;8.548;2023-04-01T04:54:04;5.47;;;1.40;;
24637;SDS011;12773;50.162;8.548;2023-04-01T04:56:52;3.62;;;1.12;;
24637;SDS011;12773;50.162;8.548;2023-04-01T04:59:40;3.33;;;1.00;;
24637;SDS011;12773;50.162;8.548;2023-04-01T05:02:27;5.97;;;1.30;;
24637;SDS011;12773;50.162;8.548;2023-04-01T05:05:15;2.30;;;0.82;;
24637;SDS011;12773;50.162;8.548;2023-04-01T05:08:02;7.83;;;1.40;;
24637;SDS011;12773;50.162;8.548;2023-04-01T05:10:50;7.10;;;1.30;;
24637;SDS011;12773;50.162;8.548;2023-04-01T05:13:38;4.78;;;1.27;;
24637;SDS011;12773;50.162;8.548;2023-04-01T05:16:26;6.33;;;1.30;;
24637;SDS011;12773;50.162;8.548;2023-04-01T05:19:13;5.58;;;1.35;;
24637;SDS011;12773;50.162;8.548;2023-04-01T05:22:00;4.50;;;1.02;;
24637;SDS011;12773;50.162;8.548;2023-04-01T05:24:48;4.42;;;1.05;;
24637;SDS011;12773;50.162;8.548;2023-04-01T05:27:35;8.40;;;1.25;;
24637;SDS011;12773;50.162;8.548;2023-04-01T05:30:29;6.55;;;1.17;;
24637;SDS011;12773;50.162;8.548;2023-04-01T05:33:12;4.47;;;0.88;;
24637;SDS011;12773;50.162;8.548;2023-04-01T05:36:12;4.83;;;1.17;;
24637;SDS011;12773;50.162;8.548;2023-04-01T05:38:57;5.30;;;1.07;;
24637;SDS011;12773;50.162;8.548;2023-04-01T05:41:45;4.00;;;0.80;;
24637;SDS011;12773;50.162;8.548;2023-04-01T05:44:33;5.53;;;1.30;;
24637;SDS011;12773;50.162;8.548;2023-04-01T05:47:21;8.18;;;1.00;;
24637;SDS011;12773;50.162;8.548;2023-04-01T05:50:09;7.10;;;1.20;;
24637;SDS011;12773;50.162;8.548;2023-04-01T05:52:57;4.70;;;1.15;;
24637;SDS011;12773;50.162;8.548;2023-04-01T05:55:45;6.62;;;1.00;;
24637;SDS011;12773;50.162;8.548;2023-04-01T05:58:32;5.17;;;1.67;;
24637;SDS011;12773;50.162;8.548;2023-04-01T06:01:19;3.98;;;1.35;;
24637;SDS011;12773;50.162;8.548;2023-04-01T06:04:11;2.85;;;0.90;;
24637;SDS011;12773;50.162;8.548;2023-04-01T06:06:58;6.03;;;1.10;;
24637;SDS011;12773;50.162;8.548;2023-04-01T06:09:45;6.12;;;1.10;;
24637;SDS011;12773;50.162;8.548;2023-04-01T06:12:37;2.33;;;0.78;;
24637;SDS011;12773;50.162;8.548;2023-04-01T06:18:38;3.55;;;0.60;;
24637;SDS011;12773;50.162;8.548;2023-04-01T06:30:44;5.35;;;0.82;;
24637;SDS011;12773;50.162;8.548;2023-04-01T06:37:03;3.58;;;0.68;;
24637;SDS011;12773;50.162;8.548;2023-04-01T06:40:08;7.03;;;0.98;;
24637;SDS011;12773;50.162;8.548;2023-04-01T06:43:00;2.55;;;0.70;;
24637;SDS011;12773;50.162;8.548;2023-04-01T06:51:39;2.58;;;0.60;;
24637;SDS011;12773;50.162;8.548;2023-04-01T06:54:47;2.02;;;0.80;;
24637;SDS011;12773;50.162;8.548;2023-04-01T06:57:45;2.27;;;0.60;;
24637;SDS011;12773;50.162;8.548;2023-04-01T07:00:39;2.80;;;0.65;;
24637;SDS011;12773;50.162;8.548;2023-04-01T07:03:42;2.08;;;0.57;;
24637;SDS011;12773;50.162;8.548;2023-04-01T07:06:50;2.65;;;0.60;;
24637;SDS011;12773;50.162;8.548;2023-04-01T07:09:26;2.62;;;0.45;;
24637;SDS011;12773;50.162;8.548;2023-04-01T07:12:12;4.12;;;0.75;;
24637;SDS011;12773;50.162;8.548;2023-04-01T07:15:09;1.65;;;0.62;;
24637;SDS011;12773;50.162;8.548;2023-04-01T07:20:50;2.95;;;0.78;;
24637;SDS011;12773;50.162;8.548;2023-04-01T07:23:40;2.58;;;0.80;;
24637;SDS011;12773;50.162;8.548;2023-04-01T07:26:30;4.80;;;1.30;;
24637;SDS011;12773;50.162;8.548;2023-04-01T07:29:18;1.05;;;0.53;;
24637;SDS011;12773;50.162;8.548;2023-04-01T07:41:18;1.35;;;0.78;;
24637;SDS011;12773;50.162;8.548;2023-04-01T07:44:18;3.45;;;0.78;;
24637;SDS011;12773;50.162;8.548;2023-04-01T07:47:31;3.75;;;0.72;;
24637;SDS011;12773;50.162;8.548;2023-04-01T07:50:25;0.93;;;0.50;;
24637;SDS011;12773;50.162;8.548;2023-04-01T08:02:10;1.30;;;0.50;;
24637;SDS011;12773;50.162;8.548;2023-04-01T08:05:16;1.07;;;0.50;;
24637;SDS011;12773;50.162;8.548;2023-04-01T08:08:25;3.22;;;0.62;;
24637;SDS011;12773;50.162;8.548;2023-04-01T08:11:20;1.50;;;0.60;;
24637;SDS011;12773;50.162;8.548;2023-04-01T08:20:52;1.30;;;0.60;;
24637;SDS011;12773;50.162;8.548;2023-04-01T08:23:41;1.32;;;0.60;;
24637;SDS011;12773;50.162;8.548;2023-04-01T08:26:47;1.85;;;0.70;;
24637;SDS011;12773;50.162;8.548;2023-04-01T08:29:42;0.85;;;0.35;;
24637;SDS011;12773;50.162;8.548;2023-04-01T08:32:32;2.27;;;0.60;;
24637;SDS011;12773;50.162;8.548;2023-04-01T08:35:31;3.35;;;0.70;;
24637;SDS011;12773;50.162;8.548;2023-04-01T08:38:40;0.93;;;0.55;;
24637;SDS011;12773;50.162;8.548;2023-04-01T08:41:56;2.50;;;0.70;;
24637;SDS011;12773;50.162;8.548;2023-04-01T08:54:23;0.78;;;0.40;;
24637;SDS011;12773;50.162;8.548;2023-04-01T09:00:30;1.85;;;0.60;;
24637;SDS011;12773;50.162;8.548;2023-04-01T09:03:26;2.22;;;0.47;;
24637;SDS011;12773;50.162;8.548;2023-04-01T09:06:21;0.45;;;0.30;;
24637;SDS011;12773;50.162;8.548;2023-04-01T09:12:19;1.20;;;0.57;;
24637;SDS011;12773;50.162;8.548;2023-04-01T09:15:27;2.60;;;0.50;;
24637;SDS011;12773;50.162;8.548;2023-04-01T09:18:25;0.75;;;0.30;;
24637;SDS011;12773;50.162;8.548;2023-04-01T09:24:39;1.95;;;0.50;;
24637;SDS011;12773;50.162;8.548;2023-04-01T09:27:28;0.65;;;0.30;;
24637;SDS011;12773;50.162;8.548;2023-04-01T09:39:25;0.70;;;0.42;;
24637;SDS011;12773;50.162;8.548;2023-04-01T09:42:29;3.00;;;0.65;;
24637;SDS011;12773;50.162;8.548;2023-04-01T09:45:37;2.60;;;0.50;;
24637;SDS011;12773;50.162;8.548;2023-04-01T09:58:33;1.62;;;0.68;;
24637;SDS011;12773;50.162;8.548;2023-04-01T10:11:04;2.37;;;0.50;;
24637;SDS011;12773;50.162;8.548;2023-04-01T10:36:13;1.05;;;0.50;;
24637;SDS011;12773;50.162;8.548;2023-04-01T10:48:22;0.90;;;0.40;;
24637;SDS011;12773;50.162;8.548;2023-04-01T10:51:22;0.80;;;0.40;;
24637;SDS011;12773;50.162;8.548;2023-04-01T11:16:47;0.30;;;0.30;;
24637;SDS011;12773;50.162;8.548;2023-04-01T11:32:13;1.50;;;0.53;;
24637;SDS011;12773;50.162;8.548;2023-04-01T11:41:27;0.82;;;0.50;;
24637;SDS011;12773;50.162;8.548;2023-04-01T11:44:25;1.02;;;0.60;;
24637;SDS011;12773;50.162;8.548;2023-04-01T11:47:35;1.00;;;0.47;;
24637;SDS011;12773;50.162;8.548;2023-04-01T11:50:33;1.00;;;0.47;;
24637;SDS011;12773;50.162;8.548;2023-04-01T12:06:13;0.85;;;0.70;;
24637;SDS011;12773;50.162;8.548;2023-04-01T12:19:00;0.30;;;0.30;;
24637;SDS011;12773;50.162;8.548;2023-04-01T12:21:52;1.55;;;0.40;;
24637;SDS011;12773;50.162;8.548;2023-04-01T12:24:45;1.03;;;0.70;;
24637;SDS011;12773;50.162;8.548;2023-04-01T12:37:18;0.68;;;0.60;;
24637;SDS011;12773;50.162;8.548;2023-04-01T12:46:13;1.52;;;0.50;;
24637;SDS011;12773;50.162;8.548;2023-04-01T12:52:12;0.65;;;0.53;;
24637;SDS011;12773;50.162;8.548;2023-04-01T12:55:08;1.22;;;0.68;;
24637;SDS011;12773;50.162;8.548;2023-04-01T13:01:27;0.50;;;0.50;;
24637;SDS011;12773;50.162;8.548;2023-04-01T13:07:31;0.43;;;0.40;;
24637;SDS011;12773;50.162;8.548;2023-04-01T13:13:53;0.62;;;0.50;;
24637;SDS011;12773;50.162;8.548;2023-04-01T13:19:48;1.35;;;1.05;;
24637;SDS011;12773;50.162;8.548;2023-04-01T13:29:14;2.12;;;0.90;;
24637;SDS011;12773;50.162;8.548;2023-04-01T13:35:10;1.20;;;0.50;;
24637;SDS011;12773;50.162;8.548;2023-04-01T13:38:29;0.68;;;0.57;;
24637;SDS011;12773;50.162;8.548;2023-04-01T13:41:30;2.00;;;0.60;;
24637;SDS011;12773;50.162;8.548;2023-04-01T13:44:41;0.88;;;0.60;;
24637;SDS011;12773;50.162;8.548;2023-04-01T13:47:50;2.87;;;0.50;;
24637;SDS011;12773;50.162;8.548;2023-04-01T13:54:11;1.17;;;0.47;;
24637;SDS011;12773;50.162;8.548;2023-04-01T13:57:17;1.15;;;0.47;;
24637;SDS011;12773;50.162;8.548;2023-04-01T14:03:30;0.72;;;0.50;;
24637;SDS011;12773;50.162;8.548;2023-04-01T14:09:44;1.40;;;0.40;;
24637;SDS011;12773;50.162;8.548;2023-04-01T14:12:57;0.50;;;0.40;;
24637;SDS011;12773;50.162;8.548;2023-04-01T14:22:31;2.30;;;0.40;;
24637;SDS011;12773;50.162;8.548;2023-04-01T14:28:38;3.25;;;0.65;;
24637;SDS011;12773;50.162;8.548;2023-04-01T14:31:36;2.35;;;0.55;;
24637;SDS011;12773;50.162;8.548;2023-04-01T14:37:55;0.42;;;0.42;;
24637;SDS011;12773;50.162;8.548;2023-04-01T14:40:54;0.62;;;0.53;;
24637;SDS011;12773;50.162;8.548;2023-04-01T14:46:48;0.60;;;0.40;;
24637;SDS011;12773;50.162;8.548;2023-04-01T14:49:48;1.40;;;0.45;;
24637;SDS011;12773;50.162;8.548;2023-04-01T14:52:38;1.07;;;0.70;;
24637;SDS011;12773;50.162;8.548;2023-04-01T14:55:36;1.30;;;0.40;;
24637;SDS011;12773;50.162;8.548;2023-04-01T14:58:44;0.95;;;0.50;;
24637;SDS011;12773;50.162;8.548;2023-04-01T15:01:37;1.02;;;0.45;;
24637;SDS011;12773;50.162;8.548;2023-04-01T15:07:54;1.10;;;0.60;;
24637;SDS011;12773;50.162;8.548;2023-04-01T15:10:57;1.10;;;0.50;;
24637;SDS011;12773;50.162;8.548;2023-04-01T15:23:27;1.75;;;0.40;;
24637;SDS011;12773;50.162;8.548;2023-04-01T15:26:24;1.25;;;0.35;;
24637;SDS011;12773;50.162;8.548;2023-04-01T15:32:25;0.35;;;0.30;;
24637;SDS011;12773;50.162;8.548;2023-04-01T15:36:18;1.00;;;0.33;;
24637;SDS011;12773;50.162;8.548;2023-04-01T15:42:11;0.85;;;0.30;;
24637;SDS011;12773;50.162;8.548;2023-04-01T15:51:25;1.22;;;0.50;;
24637;SDS011;12773;50.162;8.548;2023-04-01T15:53:52;0.30;;;0.30;;
24637;SDS011;12773;50.162;8.548;2023-04-01T15:56:50;0.50;;;0.40;;
24637;SDS011;12773;50.162;8.548;2023-04-01T16:21:13;0.60;;;0.40;;
24637;SDS011;12773;50.162;8.548;2023-04-01T16:24:30;0.42;;;0.40;;
24637;SDS011;12773;50.162;8.548;2023-04-01T16:34:19;2.58;;;0.50;;
24637;SDS011;12773;50.162;8.548;2023-04-01T16:37:11;0.70;;;0.50;;
24637;SDS011;12773;50.162;8.548;2023-04-01T16:40:12;0.30;;;0.30;;
24637;SDS011;12773;50.162;8.548;2023-04-01T16:43:06;0.78;;;0.45;;
24637;SDS011;12773;50.162;8.548;2023-04-01T16:46:12;0.45;;;0.45;;
24637;SDS011;12773;50.162;8.548;2023-04-01T16:55:15;2.12;;;0.60;;
24637;SDS011;12773;50.162;8.548;2023-04-01T16:58:05;1.80;;;0.60;;
24637;SDS011;12773;50.162;8.548;2023-04-01T17:01:18;1.05;;;0.70;;
24637;SDS011;12773;50.162;8.548;2023-04-01T17:10:43;1.32;;;0.75;;
24637;SDS011;12773;50.162;8.548;2023-04-01T17:13:34;1.25;;;0.70;;
24637;SDS011;12773;50.162;8.548;2023-04-01T17:19:55;0.50;;;0.50;;
24637;SDS011;12773;50.162;8.548;2023-04-01T17:23:12;0.90;;;0.50;;
24637;SDS011;12773;50.162;8.548;2023-04-01T17:25:48;0.40;;;0.30;;
24637;SDS011;12773;50.162;8.548;2023-04-01T17:32:05;2.15;;;0.40;;
24637;SDS011;12773;50.162;8.548;2023-04-01T17:34:57;1.77;;;0.50;;
24637;SDS011;12773;50.162;8.548;2023-04-01T17:43:56;1.85;;;0.50;;
24637;SDS011;12773;50.162;8.548;2023-04-01T17:52:47;4.47;;;1.60;;
24637;SDS011;12773;50.162;8.548;2023-04-01T17:58:40;2.33;;;1.05;;
24637;SDS011;12773;50.162;8.548;2023-04-01T18:01:43;0.60;;;0.60;;
24637;SDS011;12773;50.162;8.548;2023-04-01T18:04:50;1.12;;;0.98;;
24637;SDS011;12773;50.162;8.548;2023-04-01T18:10:53;1.45;;;1.00;;
24637;SDS011;12773;50.162;8.548;2023-04-01T18:13:49;2.00;;;0.72;;
24637;SDS011;12773;50.162;8.548;2023-04-01T18:20:26;1.45;;;0.93;;
24637;SDS011;12773;50.162;8.548;2023-04-01T18:26:42;1.00;;;0.62;;
24637;SDS011;12773;50.162;8.548;2023-04-01T18:29:40;1.85;;;1.00;;
24637;SDS011;12773;50.162;8.548;2023-04-01T18:32:42;0.60;;;0.60;;
24637;SDS011;12773;50.162;8.548;2023-04-01T18:38:36;1.52;;;1.22;;
24637;SDS011;12773;50.162;8.548;2023-04-01T18:57:15;1.80;;;1.30;;
24637;SDS011;12773;50.162;8.548;2023-04-01T19:00:04;3.50;;;1.52;;
24637;SDS011;12773;50.162;8.548;2023-04-01T19:03:02;2.85;;;1.55;;
24637;SDS011;12773;50.162;8.548;2023-04-01T19:05:51;6.58;;;2.08;;
24637;SDS011;12773;50.162;8.548;2023-04-01T19:08:41;3.85;;;1.90;;
24637;SDS011;12773;50.162;8.548;2023-04-01T19:11:34;3.65;;;1.85;;
24637;SDS011;12773;50.162;8.548;2023-04-01T19:23:34;3.40;;;1.72;;
24637;SDS011;12773;50.162;8.548;2023-04-01T19:26:29;2.55;;;1.75;;
24637;SDS011;12773;50.162;8.548;2023-04-01T19:29:37;5.75;;;1.98;;
24637;SDS011;12773;50.162;8.548;2023-04-01T19:32:48;2.20;;;1.52;;
24637;SDS011;12773;50.162;8.548;2023-04-01T19:39:25;3.98;;;1.57;;
24637;SDS011;12773;50.162;8.548;2023-04-01T19:42:17;3.27;;;1.60;;
24637;SDS011;12773;50.162;8.548;2023-04-01T19:51:33;2.08;;;1.30;;
24637;SDS011;12773;50.162;8.548;2023-04-01T19:54:27;3.17;;;1.65;;
24637;SDS011;12773;50.162;8.548;2023-04-01T19:57:38;2.83;;;1.50;;
24637;SDS011;12773;50.162;8.548;2023-04-01T20:00:40;4.20;;;1.70;;
24637;SDS011;12773;50.162;8.548;2023-04-01T20:06:20;3.83;;;1.20;;
24637;SDS011;12773;50.162;8.548;2023-04-01T20:12:41;2.75;;;1.60;;
24637;SDS011;12773;50.162;8.548;2023-04-01T20:15:35;3.20;;;1.50;;
24637;SDS011;12773;50.162;8.548;2023-04-01T20:18:24;2.62;;;1.45;;
24637;SDS011;12773;50.162;8.548;2023-04-01T20:24:30;3.92;;;1.55;;
24637;SDS011;12773;50.162;8.548;2023-04-01T20:27:26;2.75;;;1.75;;
24637;SDS011;12773;50.162;8.548;2023-04-01T20:33:35;3.90;;;1.70;;
24637;SDS011;12773;50.162;8.548;2023-04-01T20:37:00;4.70;;;2.62;;
24637;SDS011;12773;50.162;8.548;2023-04-01T20:39:31;2.95;;;2.12;;
24637;SDS011;12773;50.162;8.548;2023-04-01T20:42:34;4.00;;;2.30;;
24637;SDS011;12773;50.162;8.548;2023-04-01T20:45:32;2.05;;;1.55;;
24637;SDS011;12773;50.162;8.548;2023-04-01T20:51:29;2.27;;;1.72;;
24637;SDS011;12773;50.162;8.548;2023-04-01T20:54:33;3.72;;;1.80;;
24637;SDS011;12773;50.162;8.548;2023-04-01T20:57:25;3.08;;;1.92;;
24637;SDS011;12773;50.162;8.548;2023-04-01T21:00:28;2.90;;;1.82;;
24637;SDS011;12773;50.162;8.548;2023-04-01T21:09:41;5.22;;;2.72;;
24637;SDS011;12773;50.162;8.548;2023-04-01T21:18:34;7.80;;;2.98;;
24637;SDS011;12773;50.162;8.548;2023-04-01T21:21:26;4.37;;;2.70;;
24637;SDS011;12773;50.162;8.548;2023-04-01T21:28:02;6.00;;;2.42;;
24637;SDS011;12773;50.162;8.548;2023-04-01T21:31:04;4.50;;;2.65;;
24637;SDS011;12773;50.162;8.548;2023-04-01T21:42:58;3.50;;;2.45;;
24637;SDS011;12773;50.162;8.548;2023-04-01T21:48:52;5.17;;;2.45;;
24637;SDS011;12773;50.162;8.548;2023-04-01T21:51:50;3.15;;;2.35;;
24637;SDS011;12773;50.162;8.548;2023-04-01T21:54:41;4.87;;;2.60;;
24637;SDS011;12773;50.162;8.548;2023-04-01T21:57:36;5.03;;;2.83;;
24637;SDS011;12773;50.162;8.548;2023-04-01T22:06:51;18.12;;;9.60;;
24637;SDS011;12773;50.162;8.548;2023-04-01T22:09:38;5.05;;;3.50;;
24637;SDS011;12773;50.162;8.548;2023-04-01T22:12:30;6.22;;;2.90;;
24637;SDS011;12773;50.162;8.548;2023-04-01T22:18:33;3.87;;;2.50;;
24637;SDS011;12773;50.162;8.548;2023-04-01T22:24:19;4.55;;;2.90;;
24637;SDS011;12773;50.162;8.548;2023-04-01T22:27:41;4.05;;;2.62;;
24637;SDS011;12773;50.162;8.548;2023-04-01T22:30:30;4.67;;;2.95;;
24637;SDS011;12773;50.162;8.548;2023-04-01T22:36:36;4.70;;;2.90;;
24637;SDS011;12773;50.162;8.548;2023-04-01T22:45:39;6.25;;;3.15;;
24637;SDS011;12773;50.162;8.548;2023-04-01T22:48:41;5.65;;;3.05;;
24637;SDS011;12773;50.162;8.548;2023-04-01T22:54:37;6.12;;;3.25;;
24637;SDS011;12773;50.162;8.548;2023-04-01T22:58:13;4.47;;;3.33;;
24637;SDS011;12773;50.162;8.548;2023-04-01T23:00:32;5.72;;;3.40;;
24637;SDS011;12773;50.162;8.548;2023-04-01T23:06:12;7.08;;;3.40;;
24637;SDS011;12773;50.162;8.548;2023-04-01T23:09:15;4.70;;;3.20;;
24637;SDS011;12773;50.162;8.548;2023-04-01T23:12:08;5.30;;;2.98;;
24637;SDS011;12773;50.162;8.548;2023-04-01T23:15:01;5.30;;;3.40;;
24637;SDS011;12773;50.162;8.548;2023-04-01T23:18:12;5.25;;;3.10;;
24637;SDS011;12773;50.162;8.548;2023-04-01T23:27:15;5.28;;;3.02;;
24637;SDS011;12773;50.162;8.548;2023-04-01T23:30:02;9.00;;;3.15;;
24637;SDS011;12773;50.162;8.548;2023-04-01T23:32:50;4.08;;;3.10;;
24637;SDS011;12773;50.162;8.548;2023-04-01T23:38:52;5.55;;;3.00;;
24637;SDS011;12773;50.162;8.548;2023-04-01T23:41:40;3.72;;;2.90;;
24637;SDS011;12773;50.162;8.548;2023-04-01T23:44:28;3.95;;;2.87;;
24637;SDS011;12773;50.162;8.548;2023-04-01T23:47:21;4.33;;;2.90;;
24637;SDS011;12773;50.162;8.548;2023-04-01T23:50:14;3.80;;;3.00;;
24637;SDS011;12773;50.162;8.548;2023-04-01T23:53:09;5.17;;;3.25;;
24637;SDS011;12773;50.162;8.548;2023-04-01T23:56:06;5.45;;;3.05;;
24637;SDS011;12773;50.162;8.548;2023-04-01T23:58:53;3.70;;;3.12;;
